X  Schließen METAR Luftfahrt Wetterdaten     EHAM Amsterdam Airport Schiphol
Temperatur
9°C Temperatur
8°C Taupunkt
94% Feuchtigkeit



Wind
35 KM/S
22 MPS
10 M/S
19 KTS



230°
SW
Aktuelle Wetterlage

Teilweise bewölkt Teilweise bewölkt
Luftdruck 1021 (hPa) - 30.15 (inHg)
Sichtweite 6 (Meile) - 9.7 (Km)
Flughafen
Flughafen Code EHAM

Position : Amsterdam Airport Schiphol
Entfernung: 26 (Km)

Metar:
EHAM 202255Z 23019KT 9999 FEW010 09/08 Q1021 NOSIG

Zeit: 20-02-2024 23:55 CET